RYR27LQ EGSS-LEMI
Flight info
| Callsign | RYR27LQ |
|---|---|
| Flight time | 2h 8m |
| Altitude | 23000 |
| Route | NUGBO M183 SILVA Q41 COWLY T71 VAPID N859 DRAKE/N0434F350 L151 SITET UN859 VANAD/N0435F370 UN859 SOPIL DCT BALAN DCT LMG DCT PIMQO DCT AGN DCT ANETO DCT POSSY DCT XIMPE DCT RIMES DCT SAURA DCT TATOS DCT PLANA DCT VLC DCT ALT |
| Aircraft | B738/M-SDE2E3FGHIRWXY/LB1 |
Departure
| Time | 2026-04-14 12:08 |
|---|---|
| Airport | London Stansted Airport (EGSS) |
Arrival
| Time | 2026-04-14 14:17 |
|---|---|
| Airport | Region of Murcia International Airport (LEMI) |
| Time | Latitude | Longitude | Altitude | Speed | Heading |
|---|---|---|---|---|---|
| 2026-04-14 11:35 | 51.89374 | 0.25997 | 354 ft | 0 kts | 223° |
| 2026-04-14 11:58 | 51.89378 | 0.26003 | 355 ft | 2 kts | 223° |
| 2026-04-14 11:58 | 51.89391 | 0.26023 | 350 ft | 2 kts | 222° |
| 2026-04-14 11:58 | 51.89403 | 0.26042 | 356 ft | 3 kts | 245° |
| 2026-04-14 11:58 | 51.89406 | 0.26068 | 356 ft | 3 kts | 293° |
| 2026-04-14 11:59 | 51.89396 | 0.26092 | 354 ft | 2 kts | 312° |
| 2026-04-14 11:59 | 51.89393 | 0.26097 | 353 ft | 1 kts | 313° |
| 2026-04-14 12:01 | 51.89394 | 0.26097 | 353 ft | 1 kts | 313° |
| 2026-04-14 12:02 | 51.89422 | 0.26047 | 355 ft | 10 kts | 313° |
| 2026-04-14 12:02 | 51.89473 | 0.25958 | 348 ft | 11 kts | 313° |
| 2026-04-14 12:02 | 51.89523 | 0.25872 | 352 ft | 10 kts | 320° |
| 2026-04-14 12:02 | 51.89584 | 0.25810 | 348 ft | 10 kts | 327° |
| 2026-04-14 12:03 | 51.89610 | 0.25717 | 348 ft | 10 kts | 255° |
| 2026-04-14 12:03 | 51.89566 | 0.25636 | 350 ft | 10 kts | 220° |
| 2026-04-14 12:03 | 51.89518 | 0.25562 | 353 ft | 9 kts | 224° |
| 2026-04-14 12:03 | 51.89472 | 0.25491 | 348 ft | 9 kts | 223° |
| 2026-04-14 12:04 | 51.89426 | 0.25424 | 351 ft | 9 kts | 224° |
| 2026-04-14 12:04 | 51.89420 | 0.25336 | 348 ft | 9 kts | 306° |
| 2026-04-14 12:04 | 51.89465 | 0.25263 | 352 ft | 7 kts | 312° |
| 2026-04-14 12:04 | 51.89490 | 0.25202 | 349 ft | 5 kts | 291° |
| 2026-04-14 12:05 | 51.89492 | 0.25188 | 343 ft | 0 kts | 284° |
| 2026-04-14 12:06 | 51.89493 | 0.25179 | 351 ft | 4 kts | 279° |
| 2026-04-14 12:07 | 51.89493 | 0.25078 | 348 ft | 11 kts | 269° |
| 2026-04-14 12:07 | 51.89483 | 0.24955 | 338 ft | 11 kts | 232° |
| 2026-04-14 12:07 | 51.89471 | 0.24937 | 338 ft | 3 kts | 224° |
| 2026-04-14 12:07 | 51.89321 | 0.24713 | 339 ft | 66 kts | 222° |
| 2026-04-14 12:08 | 51.88813 | 0.23950 | 339 ft | 132 kts | 223° |
| 2026-04-14 12:08 | 51.88027 | 0.22759 | 564 ft | 168 kts | 219° |
| 2026-04-14 12:08 | 51.87163 | 0.21457 | 1455 ft | 169 kts | 218° |
| 2026-04-14 12:08 | 51.86300 | 0.20162 | 2392 ft | 170 kts | 219° |
| 2026-04-14 12:09 | 51.85397 | 0.18820 | 3099 ft | 186 kts | 219° |
| 2026-04-14 12:09 | 51.84377 | 0.17293 | 3385 ft | 213 kts | 220° |
| 2026-04-14 12:09 | 51.83378 | 0.15544 | 3598 ft | 241 kts | 239° |
| 2026-04-14 12:09 | 51.83102 | 0.12773 | 4298 ft | 260 kts | 278° |
| 2026-04-14 12:10 | 51.83961 | 0.10246 | 5365 ft | 268 kts | 313° |
| 2026-04-14 12:10 | 51.85617 | 0.08788 | 6336 ft | 278 kts | 340° |
| 2026-04-14 12:10 | 51.87551 | 0.08351 | 7214 ft | 285 kts | 358° |
| 2026-04-14 12:10 | 51.89560 | 0.08309 | 8130 ft | 285 kts | 354° |
| 2026-04-14 12:11 | 51.91550 | 0.08014 | 8999 ft | 288 kts | 351° |
| 2026-04-14 12:11 | 51.93518 | 0.07615 | 9871 ft | 289 kts | 349° |
| 2026-04-14 12:11 | 51.95535 | 0.07122 | 10703 ft | 291 kts | 348° |
| 2026-04-14 12:11 | 51.97408 | 0.06096 | 11417 ft | 288 kts | 321° |
| 2026-04-14 12:12 | 51.98683 | 0.03644 | 12066 ft | 286 kts | 288° |
| 2026-04-14 12:12 | 51.98882 | 0.00533 | 12994 ft | 280 kts | 258° |
| 2026-04-14 12:12 | 51.98289 | -0.02526 | 13537 ft | 294 kts | 251° |
| 2026-04-14 12:12 | 51.97635 | -0.05802 | 13765 ft | 315 kts | 253° |
| 2026-04-14 12:13 | 51.97050 | -0.09293 | 14229 ft | 325 kts | 256° |
| 2026-04-14 12:13 | 51.96535 | -0.12861 | 14993 ft | 325 kts | 257° |
| 2026-04-14 12:13 | 51.96046 | -0.16468 | 15655 ft | 331 kts | 258° |
| 2026-04-14 12:13 | 51.95560 | -0.20143 | 16301 ft | 335 kts | 258° |
| 2026-04-14 12:14 | 51.95087 | -0.23752 | 17013 ft | 338 kts | 259° |
| 2026-04-14 12:14 | 51.94596 | -0.27502 | 17640 ft | 343 kts | 259° |
| 2026-04-14 12:14 | 51.94097 | -0.31306 | 18308 ft | 347 kts | 259° |
| 2026-04-14 12:14 | 51.93591 | -0.35146 | 18893 ft | 350 kts | 259° |
| 2026-04-14 12:15 | 51.93080 | -0.39016 | 19521 ft | 352 kts | 259° |
| 2026-04-14 12:15 | 51.92566 | -0.42893 | 20186 ft | 352 kts | 260° |
| 2026-04-14 12:15 | 51.92049 | -0.46780 | 20812 ft | 354 kts | 260° |
| 2026-04-14 12:15 | 51.91529 | -0.50686 | 21419 ft | 356 kts | 260° |
| 2026-04-14 12:16 | 51.91004 | -0.54614 | 22031 ft | 358 kts | 260° |
| 2026-04-14 12:16 | 51.90475 | -0.58558 | 22619 ft | 360 kts | 260° |
| 2026-04-14 12:16 | 51.89942 | -0.62525 | 23200 ft | 362 kts | 261° |
| 2026-04-14 12:16 | 51.89404 | -0.66516 | 23758 ft | 363 kts | 261° |
| 2026-04-14 12:17 | 51.88863 | -0.70519 | 24225 ft | 365 kts | 261° |
| 2026-04-14 12:17 | 51.88317 | -0.74548 | 24671 ft | 367 kts | 261° |
| 2026-04-14 12:17 | 51.87768 | -0.78595 | 25111 ft | 370 kts | 261° |
| 2026-04-14 12:17 | 51.87214 | -0.82668 | 25560 ft | 372 kts | 262° |
| 2026-04-14 12:18 | 51.86654 | -0.86764 | 25998 ft | 374 kts | 262° |
| 2026-04-14 12:18 | 51.86089 | -0.90881 | 26417 ft | 376 kts | 261° |
| 2026-04-14 12:18 | 51.85167 | -0.94831 | 26783 ft | 389 kts | 245° |
| 2026-04-14 12:18 | 51.83417 | -0.98353 | 27181 ft | 405 kts | 228° |
| 2026-04-14 12:19 | 51.81104 | -1.00962 | 27557 ft | 420 kts | 213° |
| 2026-04-14 12:19 | 51.78228 | -1.02451 | 27896 ft | 438 kts | 197° |
| 2026-04-14 12:19 | 51.75243 | -1.03229 | 28255 ft | 443 kts | 194° |
| 2026-04-14 12:19 | 51.72137 | -1.03907 | 28574 ft | 447 kts | 194° |
| 2026-04-14 12:20 | 51.69041 | -1.04602 | 28892 ft | 450 kts | 194° |
| 2026-04-14 12:20 | 51.65938 | -1.05363 | 29235 ft | 452 kts | 195° |
| 2026-04-14 12:20 | 51.62819 | -1.06159 | 29570 ft | 456 kts | 194° |
| 2026-04-14 12:20 | 51.59633 | -1.06556 | 29867 ft | 466 kts | 185° |
| 2026-04-14 12:21 | 51.56377 | -1.06410 | 30182 ft | 470 kts | 182° |
| 2026-04-14 12:21 | 51.53134 | -1.06165 | 30431 ft | 473 kts | 182° |
| 2026-04-14 12:21 | 51.49834 | -1.05907 | 30661 ft | 476 kts | 182° |
| 2026-04-14 12:21 | 51.46512 | -1.05676 | 30911 ft | 479 kts | 183° |
| 2026-04-14 12:22 | 51.43176 | -1.05475 | 31154 ft | 481 kts | 183° |
| 2026-04-14 12:22 | 51.39828 | -1.05292 | 31413 ft | 483 kts | 183° |
| 2026-04-14 12:22 | 51.36455 | -1.05113 | 31644 ft | 486 kts | 183° |
| 2026-04-14 12:22 | 51.33069 | -1.04931 | 31870 ft | 489 kts | 183° |
| 2026-04-14 12:23 | 51.29661 | -1.04745 | 32145 ft | 490 kts | 182° |
| 2026-04-14 12:23 | 51.26260 | -1.04151 | 32466 ft | 495 kts | 173° |
| 2026-04-14 12:23 | 51.22905 | -1.02791 | 32785 ft | 500 kts | 164° |
| 2026-04-14 12:23 | 51.19686 | -1.00661 | 33065 ft | 503 kts | 158° |
| 2026-04-14 12:24 | 51.16509 | -0.98288 | 33338 ft | 505 kts | 157° |
| 2026-04-14 12:24 | 51.13333 | -0.95875 | 33631 ft | 506 kts | 157° |
| 2026-04-14 12:24 | 51.10154 | -0.93482 | 33918 ft | 506 kts | 157° |
| 2026-04-14 12:24 | 51.06964 | -0.91122 | 34197 ft | 506 kts | 158° |
| 2026-04-14 12:25 | 51.04254 | -0.89146 | 34413 ft | 506 kts | 158° |
| 2026-04-14 12:25 | 51.01052 | -0.86832 | 34693 ft | 505 kts | 158° |
| 2026-04-14 12:25 | 50.97854 | -0.84532 | 34952 ft | 505 kts | 158° |
| 2026-04-14 12:25 | 50.94658 | -0.82236 | 35201 ft | 505 kts | 158° |
| 2026-04-14 12:26 | 50.91453 | -0.79933 | 35446 ft | 505 kts | 158° |
| 2026-04-14 12:26 | 50.88265 | -0.77643 | 35690 ft | 504 kts | 158° |
| 2026-04-14 12:26 | 50.85126 | -0.75271 | 35919 ft | 505 kts | 153° |
| 2026-04-14 12:26 | 50.82144 | -0.72319 | 36135 ft | 507 kts | 147° |
| 2026-04-14 12:27 | 50.79241 | -0.69145 | 36359 ft | 507 kts | 146° |
| 2026-04-14 12:27 | 50.76354 | -0.65948 | 36582 ft | 507 kts | 146° |
| 2026-04-14 12:27 | 50.73459 | -0.62787 | 36791 ft | 507 kts | 147° |
| 2026-04-14 12:27 | 50.70545 | -0.59667 | 36996 ft | 506 kts | 147° |
| 2026-04-14 12:28 | 50.67614 | -0.56563 | 37159 ft | 507 kts | 147° |
| 2026-04-14 12:28 | 50.64670 | -0.53446 | 37134 ft | 510 kts | 147° |
| 2026-04-14 12:28 | 50.58794 | -0.47228 | 37138 ft | 507 kts | 147° |
| 2026-04-14 12:29 | 50.52996 | -0.41111 | 37133 ft | 503 kts | 147° |
| 2026-04-14 12:29 | 50.47191 | -0.35005 | 37136 ft | 500 kts | 147° |
| 2026-04-14 12:30 | 50.41414 | -0.28944 | 37141 ft | 499 kts | 147° |
| 2026-04-14 12:30 | 50.35634 | -0.22899 | 37162 ft | 503 kts | 147° |
| 2026-04-14 12:31 | 50.29769 | -0.16783 | 37158 ft | 510 kts | 147° |
| 2026-04-14 12:31 | 50.23847 | -0.10623 | 37154 ft | 512 kts | 147° |
| 2026-04-14 12:32 | 50.17662 | -0.05123 | 37158 ft | 511 kts | 159° |
| 2026-04-14 12:32 | 50.11113 | -0.00781 | 37148 ft | 512 kts | 159° |
| 2026-04-14 12:33 | 50.04354 | 0.02434 | 37164 ft | 507 kts | 169° |
| 2026-04-14 12:33 | 49.97502 | 0.05001 | 37159 ft | 506 kts | 169° |
| 2026-04-14 12:34 | 49.90675 | 0.07603 | 37150 ft | 505 kts | 169° |
| 2026-04-14 12:34 | 49.83869 | 0.10264 | 37145 ft | 503 kts | 168° |
| 2026-04-14 12:35 | 49.77086 | 0.12923 | 37150 ft | 502 kts | 168° |
| 2026-04-14 12:35 | 49.70366 | 0.15543 | 37154 ft | 501 kts | 168° |
| 2026-04-14 12:36 | 49.63568 | 0.18223 | 37162 ft | 501 kts | 168° |
| 2026-04-14 12:36 | 49.56863 | 0.20938 | 37157 ft | 501 kts | 167° |
| 2026-04-14 12:37 | 49.50115 | 0.23663 | 37159 ft | 502 kts | 168° |
| 2026-04-14 12:37 | 49.43352 | 0.26374 | 37160 ft | 502 kts | 168° |
| 2026-04-14 12:38 | 49.33187 | 0.30430 | 37158 ft | 504 kts | 167° |
| 2026-04-14 12:39 | 49.26396 | 0.33192 | 37153 ft | 505 kts | 166° |
| 2026-04-14 12:39 | 49.19614 | 0.36072 | 37160 ft | 507 kts | 166° |
| 2026-04-14 12:40 | 49.12814 | 0.38956 | 37154 ft | 508 kts | 166° |
| 2026-04-14 12:40 | 49.06000 | 0.41818 | 37161 ft | 508 kts | 166° |
| 2026-04-14 12:41 | 48.99176 | 0.44667 | 37157 ft | 509 kts | 166° |
| 2026-04-14 12:41 | 48.92345 | 0.47513 | 37161 ft | 509 kts | 166° |
| 2026-04-14 12:42 | 48.85517 | 0.50351 | 37164 ft | 509 kts | 166° |
| 2026-04-14 12:42 | 48.79840 | 0.52704 | 37166 ft | 509 kts | 166° |
| 2026-04-14 12:43 | 48.73000 | 0.55446 | 37163 ft | 508 kts | 167° |
| 2026-04-14 12:43 | 48.66161 | 0.58096 | 37169 ft | 507 kts | 167° |
| 2026-04-14 12:44 | 48.59329 | 0.60754 | 37167 ft | 507 kts | 167° |
| 2026-04-14 12:44 | 48.52513 | 0.63413 | 37187 ft | 506 kts | 167° |
| 2026-04-14 12:45 | 48.42307 | 0.67539 | 37178 ft | 506 kts | 166° |
| 2026-04-14 12:45 | 48.35519 | 0.70313 | 37171 ft | 506 kts | 166° |
| 2026-04-14 12:46 | 48.28731 | 0.73062 | 37174 ft | 505 kts | 166° |
| 2026-04-14 12:46 | 48.21937 | 0.75787 | 37177 ft | 505 kts | 166° |
| 2026-04-14 12:47 | 48.15145 | 0.78455 | 37169 ft | 505 kts | 166° |
| 2026-04-14 12:47 | 48.08341 | 0.81115 | 37177 ft | 505 kts | 166° |
| 2026-04-14 12:48 | 48.01575 | 0.83762 | 37185 ft | 506 kts | 166° |
| 2026-04-14 12:48 | 47.94721 | 0.86440 | 37178 ft | 506 kts | 166° |
| 2026-04-14 12:49 | 47.87951 | 0.89078 | 37176 ft | 507 kts | 166° |
| 2026-04-14 12:49 | 47.81127 | 0.91728 | 37185 ft | 507 kts | 166° |
| 2026-04-14 12:50 | 47.70878 | 0.95691 | 37190 ft | 508 kts | 166° |
| 2026-04-14 12:51 | 47.64032 | 0.98332 | 37179 ft | 508 kts | 166° |
| 2026-04-14 12:51 | 47.57188 | 1.00965 | 37189 ft | 508 kts | 166° |
| 2026-04-14 12:52 | 47.50342 | 1.03593 | 37184 ft | 508 kts | 166° |
| 2026-04-14 12:52 | 47.43469 | 1.06071 | 37175 ft | 508 kts | 172° |
| 2026-04-14 12:53 | 47.36459 | 1.06517 | 37202 ft | 503 kts | 184° |
| 2026-04-14 12:53 | 47.29452 | 1.06198 | 37192 ft | 503 kts | 184° |
| 2026-04-14 12:54 | 47.22447 | 1.05954 | 37195 ft | 504 kts | 184° |
| 2026-04-14 12:54 | 47.15434 | 1.05790 | 37194 ft | 504 kts | 184° |
| 2026-04-14 12:55 | 47.08417 | 1.05636 | 37207 ft | 504 kts | 184° |
| 2026-04-14 12:55 | 47.01399 | 1.05469 | 37192 ft | 505 kts | 184° |
| 2026-04-14 12:56 | 46.94374 | 1.05187 | 37196 ft | 504 kts | 184° |
| 2026-04-14 12:56 | 46.87403 | 1.04862 | 37197 ft | 505 kts | 184° |
| 2026-04-14 12:57 | 46.80387 | 1.04550 | 37193 ft | 505 kts | 184° |
| 2026-04-14 12:57 | 46.73362 | 1.04251 | 37195 ft | 505 kts | 184° |
| 2026-04-14 12:58 | 46.66334 | 1.03955 | 37191 ft | 505 kts | 184° |
| 2026-04-14 12:58 | 46.59294 | 1.03657 | 37198 ft | 506 kts | 184° |
| 2026-04-14 12:59 | 46.52267 | 1.03361 | 37199 ft | 506 kts | 184° |
| 2026-04-14 12:59 | 46.45219 | 1.03189 | 37197 ft | 507 kts | 182° |
| 2026-04-14 13:00 | 46.38166 | 1.03150 | 37196 ft | 507 kts | 182° |
| 2026-04-14 13:00 | 46.31116 | 1.03102 | 37197 ft | 507 kts | 182° |
| 2026-04-14 13:01 | 46.24054 | 1.03030 | 37194 ft | 507 kts | 182° |
| 2026-04-14 13:01 | 46.16997 | 1.02949 | 37195 ft | 507 kts | 182° |
| 2026-04-14 13:02 | 46.09934 | 1.02869 | 37195 ft | 507 kts | 182° |
| 2026-04-14 13:02 | 46.02879 | 1.02791 | 37192 ft | 507 kts | 182° |
| 2026-04-14 13:03 | 45.95822 | 1.02714 | 37179 ft | 508 kts | 182° |
| 2026-04-14 13:03 | 45.88753 | 1.02637 | 37188 ft | 507 kts | 182° |
| 2026-04-14 13:04 | 45.81693 | 1.02632 | 37184 ft | 508 kts | 178° |
| 2026-04-14 13:04 | 45.74707 | 1.04128 | 37191 ft | 508 kts | 169° |
| 2026-04-14 13:05 | 45.67807 | 1.06034 | 37196 ft | 508 kts | 169° |
| 2026-04-14 13:05 | 45.60849 | 1.07895 | 37182 ft | 509 kts | 169° |
| 2026-04-14 13:06 | 45.53883 | 1.09686 | 37181 ft | 509 kts | 169° |
| 2026-04-14 13:06 | 45.46917 | 1.11456 | 37182 ft | 508 kts | 169° |
| 2026-04-14 13:07 | 45.39956 | 1.13226 | 37180 ft | 508 kts | 169° |
| 2026-04-14 13:07 | 45.33002 | 1.14992 | 37187 ft | 508 kts | 169° |
| 2026-04-14 13:08 | 45.26044 | 1.16757 | 37182 ft | 508 kts | 169° |
| 2026-04-14 13:08 | 45.19086 | 1.18494 | 37175 ft | 508 kts | 172° |
| 2026-04-14 13:09 | 45.12063 | 1.18535 | 37178 ft | 504 kts | 192° |
| 2026-04-14 13:09 | 45.05192 | 1.16726 | 37188 ft | 502 kts | 194° |
| 2026-04-14 13:10 | 44.98328 | 1.14842 | 37192 ft | 503 kts | 193° |
| 2026-04-14 13:10 | 44.91449 | 1.13033 | 37174 ft | 503 kts | 193° |
| 2026-04-14 13:11 | 44.84555 | 1.11272 | 37176 ft | 504 kts | 192° |
| 2026-04-14 13:11 | 44.77651 | 1.09522 | 37183 ft | 504 kts | 192° |
| 2026-04-14 13:12 | 44.70741 | 1.07772 | 37177 ft | 505 kts | 192° |
| 2026-04-14 13:12 | 44.64111 | 1.06093 | 37178 ft | 505 kts | 192° |
| 2026-04-14 13:13 | 44.57195 | 1.04345 | 37190 ft | 506 kts | 192° |
| 2026-04-14 13:13 | 44.50264 | 1.02598 | 37180 ft | 506 kts | 192° |
| 2026-04-14 13:14 | 44.43336 | 1.00856 | 37187 ft | 506 kts | 192° |
| 2026-04-14 13:14 | 44.36404 | 0.99117 | 37193 ft | 506 kts | 192° |
| 2026-04-14 13:15 | 44.29474 | 0.97383 | 37197 ft | 506 kts | 192° |
| 2026-04-14 13:15 | 44.22531 | 0.95650 | 37201 ft | 506 kts | 192° |
| 2026-04-14 13:16 | 44.15594 | 0.93922 | 37203 ft | 506 kts | 192° |
| 2026-04-14 13:16 | 44.08660 | 0.92199 | 37203 ft | 506 kts | 192° |
| 2026-04-14 13:17 | 44.01722 | 0.90479 | 37203 ft | 506 kts | 192° |
| 2026-04-14 13:17 | 43.94783 | 0.88762 | 37198 ft | 506 kts | 192° |
| 2026-04-14 13:18 | 43.87848 | 0.87050 | 37209 ft | 506 kts | 192° |
| 2026-04-14 13:18 | 43.80971 | 0.85238 | 37194 ft | 506 kts | 193° |
| 2026-04-14 13:19 | 43.74069 | 0.83364 | 37201 ft | 506 kts | 193° |
| 2026-04-14 13:19 | 43.67169 | 0.81505 | 37198 ft | 505 kts | 193° |
| 2026-04-14 13:20 | 43.60264 | 0.79663 | 37203 ft | 505 kts | 193° |
| 2026-04-14 13:20 | 43.53363 | 0.77832 | 37201 ft | 505 kts | 192° |
| 2026-04-14 13:21 | 43.46463 | 0.76005 | 37201 ft | 505 kts | 192° |
| 2026-04-14 13:21 | 43.39563 | 0.74182 | 37198 ft | 505 kts | 192° |
| 2026-04-14 13:22 | 43.32670 | 0.72364 | 37203 ft | 504 kts | 192° |
| 2026-04-14 13:22 | 43.25781 | 0.70551 | 37191 ft | 504 kts | 192° |
| 2026-04-14 13:23 | 43.18887 | 0.68742 | 37196 ft | 504 kts | 192° |
| 2026-04-14 13:23 | 43.12000 | 0.66938 | 37190 ft | 504 kts | 192° |
| 2026-04-14 13:24 | 43.05111 | 0.65138 | 37198 ft | 504 kts | 192° |
| 2026-04-14 13:24 | 42.94790 | 0.62451 | 37192 ft | 502 kts | 192° |
| 2026-04-14 13:25 | 42.87921 | 0.60664 | 37159 ft | 502 kts | 192° |
| 2026-04-14 13:26 | 42.74269 | 0.57130 | 37138 ft | 499 kts | 192° |
| 2026-04-14 13:26 | 42.67545 | 0.54864 | 37086 ft | 496 kts | 206° |
| 2026-04-14 13:27 | 42.61348 | 0.50914 | 37096 ft | 492 kts | 211° |
| 2026-04-14 13:27 | 42.55192 | 0.46850 | 37099 ft | 493 kts | 210° |
| 2026-04-14 13:28 | 42.49991 | 0.43483 | 37064 ft | 495 kts | 210° |
| 2026-04-14 13:28 | 42.42728 | 0.38854 | 37068 ft | 499 kts | 209° |
| 2026-04-14 13:29 | 42.36419 | 0.34847 | 37066 ft | 503 kts | 210° |
| 2026-04-14 13:29 | 42.31128 | 0.31492 | 37062 ft | 506 kts | 210° |
| 2026-04-14 13:30 | 42.24722 | 0.27437 | 37061 ft | 510 kts | 209° |
| 2026-04-14 13:30 | 42.18285 | 0.23370 | 37041 ft | 512 kts | 210° |
| 2026-04-14 13:31 | 42.11823 | 0.19297 | 37032 ft | 513 kts | 209° |
| 2026-04-14 13:31 | 42.05183 | 0.15716 | 37040 ft | 518 kts | 197° |
| 2026-04-14 13:32 | 41.98054 | 0.14285 | 37057 ft | 519 kts | 186° |
| 2026-04-14 13:32 | 41.90872 | 0.13349 | 37053 ft | 518 kts | 186° |
| 2026-04-14 13:33 | 41.83717 | 0.12361 | 37049 ft | 516 kts | 187° |
| 2026-04-14 13:33 | 41.76587 | 0.11308 | 37044 ft | 514 kts | 187° |
| 2026-04-14 13:34 | 41.65965 | 0.09713 | 37052 ft | 510 kts | 187° |
| 2026-04-14 13:35 | 41.58925 | 0.08665 | 37051 ft | 508 kts | 187° |
| 2026-04-14 13:35 | 41.51902 | 0.07624 | 37064 ft | 506 kts | 187° |
| 2026-04-14 13:36 | 41.44910 | 0.06590 | 37064 ft | 505 kts | 187° |
| 2026-04-14 13:36 | 41.37929 | 0.05560 | 37069 ft | 504 kts | 187° |
| 2026-04-14 13:37 | 41.30957 | 0.04533 | 37067 ft | 504 kts | 187° |
| 2026-04-14 13:37 | 41.23981 | 0.03508 | 37081 ft | 505 kts | 187° |
| 2026-04-14 13:38 | 41.16998 | 0.02484 | 37076 ft | 505 kts | 187° |
| 2026-04-14 13:38 | 41.10002 | 0.01460 | 37088 ft | 506 kts | 186° |
| 2026-04-14 13:39 | 41.02995 | 0.00438 | 37080 ft | 507 kts | 186° |
| 2026-04-14 13:39 | 40.96013 | -0.00578 | 37088 ft | 508 kts | 186° |
| 2026-04-14 13:40 | 40.88975 | -0.01601 | 37086 ft | 509 kts | 186° |
| 2026-04-14 13:40 | 40.81928 | -0.02623 | 37091 ft | 510 kts | 186° |
| 2026-04-14 13:41 | 40.74865 | -0.03645 | 37091 ft | 511 kts | 186° |
| 2026-04-14 13:41 | 40.67802 | -0.04665 | 37088 ft | 511 kts | 186° |
| 2026-04-14 13:42 | 40.60730 | -0.05684 | 37105 ft | 511 kts | 186° |
| 2026-04-14 13:42 | 40.53708 | -0.07057 | 37108 ft | 509 kts | 197° |
| 2026-04-14 13:43 | 40.46948 | -0.09764 | 37145 ft | 508 kts | 200° |
| 2026-04-14 13:43 | 40.43580 | -0.11174 | 36988 ft | 509 kts | 200° |
| 2026-04-14 13:43 | 40.40205 | -0.12559 | 36713 ft | 507 kts | 199° |
| 2026-04-14 13:43 | 40.36845 | -0.13907 | 36473 ft | 502 kts | 199° |
| 2026-04-14 13:44 | 40.33527 | -0.15217 | 36232 ft | 494 kts | 199° |
| 2026-04-14 13:44 | 40.30248 | -0.16506 | 35852 ft | 491 kts | 199° |
| 2026-04-14 13:44 | 40.26988 | -0.17787 | 35489 ft | 487 kts | 199° |
| 2026-04-14 13:44 | 40.23743 | -0.19064 | 34971 ft | 489 kts | 200° |
| 2026-04-14 13:45 | 40.20469 | -0.20353 | 34419 ft | 491 kts | 200° |
| 2026-04-14 13:45 | 40.17225 | -0.21626 | 34215 ft | 484 kts | 200° |
| 2026-04-14 13:45 | 40.14025 | -0.22879 | 33981 ft | 476 kts | 200° |
| 2026-04-14 13:45 | 40.10851 | -0.24123 | 33685 ft | 479 kts | 200° |
| 2026-04-14 13:46 | 40.07636 | -0.25387 | 33499 ft | 485 kts | 200° |
| 2026-04-14 13:46 | 40.04420 | -0.26646 | 33161 ft | 480 kts | 200° |
| 2026-04-14 13:46 | 40.01232 | -0.27892 | 32788 ft | 476 kts | 200° |
| 2026-04-14 13:46 | 39.98068 | -0.29127 | 32393 ft | 473 kts | 199° |
| 2026-04-14 13:47 | 39.94925 | -0.30352 | 32015 ft | 471 kts | 200° |
| 2026-04-14 13:47 | 39.91796 | -0.31571 | 31650 ft | 468 kts | 200° |
| 2026-04-14 13:47 | 39.88679 | -0.32784 | 31283 ft | 466 kts | 200° |
| 2026-04-14 13:47 | 39.85595 | -0.33982 | 31037 ft | 461 kts | 200° |
| 2026-04-14 13:48 | 39.82505 | -0.35184 | 30808 ft | 468 kts | 200° |
| 2026-04-14 13:48 | 39.79364 | -0.36405 | 30583 ft | 472 kts | 200° |
| 2026-04-14 13:48 | 39.76228 | -0.37622 | 30332 ft | 468 kts | 200° |
| 2026-04-14 13:48 | 39.73165 | -0.38807 | 30061 ft | 464 kts | 200° |
| 2026-04-14 13:49 | 39.70041 | -0.40015 | 29806 ft | 462 kts | 200° |
| 2026-04-14 13:49 | 39.66957 | -0.41208 | 29519 ft | 461 kts | 199° |
| 2026-04-14 13:49 | 39.63926 | -0.42380 | 29247 ft | 460 kts | 199° |
| 2026-04-14 13:49 | 39.60862 | -0.43564 | 28968 ft | 459 kts | 199° |
| 2026-04-14 13:50 | 39.57813 | -0.44741 | 28705 ft | 456 kts | 199° |
| 2026-04-14 13:50 | 39.54783 | -0.45910 | 28476 ft | 454 kts | 199° |
| 2026-04-14 13:50 | 39.51758 | -0.47075 | 28212 ft | 453 kts | 199° |
| 2026-04-14 13:50 | 39.48744 | -0.48239 | 27955 ft | 452 kts | 200° |
| 2026-04-14 13:51 | 39.45788 | -0.49557 | 27693 ft | 447 kts | 204° |
| 2026-04-14 13:51 | 39.42878 | -0.50970 | 27445 ft | 446 kts | 204° |
| 2026-04-14 13:51 | 39.39995 | -0.52434 | 27193 ft | 444 kts | 206° |
| 2026-04-14 13:51 | 39.37158 | -0.53980 | 26943 ft | 442 kts | 207° |
| 2026-04-14 13:52 | 39.34344 | -0.55568 | 26687 ft | 440 kts | 207° |
| 2026-04-14 13:52 | 39.31545 | -0.57163 | 26434 ft | 439 kts | 207° |
| 2026-04-14 13:52 | 39.28758 | -0.58748 | 26194 ft | 437 kts | 207° |
| 2026-04-14 13:52 | 39.25981 | -0.60318 | 25958 ft | 435 kts | 207° |
| 2026-04-14 13:53 | 39.23205 | -0.61877 | 25720 ft | 434 kts | 207° |
| 2026-04-14 13:53 | 39.20440 | -0.63423 | 25476 ft | 433 kts | 207° |
| 2026-04-14 13:53 | 39.17677 | -0.64962 | 25239 ft | 432 kts | 207° |
| 2026-04-14 13:53 | 39.14922 | -0.66494 | 24997 ft | 431 kts | 207° |
| 2026-04-14 13:54 | 39.12172 | -0.68022 | 24782 ft | 430 kts | 207° |
| 2026-04-14 13:54 | 39.09429 | -0.69542 | 24544 ft | 427 kts | 206° |
| 2026-04-14 13:54 | 39.06701 | -0.71052 | 24311 ft | 426 kts | 206° |
| 2026-04-14 13:54 | 39.03981 | -0.72557 | 24096 ft | 426 kts | 206° |
| 2026-04-14 13:55 | 39.01262 | -0.74061 | 23878 ft | 425 kts | 206° |
| 2026-04-14 13:55 | 38.98545 | -0.75563 | 23634 ft | 424 kts | 206° |
| 2026-04-14 13:55 | 38.95841 | -0.77056 | 23367 ft | 422 kts | 206° |
| 2026-04-14 13:55 | 38.93156 | -0.78536 | 23097 ft | 418 kts | 206° |
| 2026-04-14 13:56 | 38.90504 | -0.79998 | 22837 ft | 415 kts | 206° |
| 2026-04-14 13:56 | 38.87982 | -0.81389 | 22594 ft | 412 kts | 206° |
| 2026-04-14 13:56 | 38.85352 | -0.82837 | 22315 ft | 410 kts | 206° |
| 2026-04-14 13:56 | 38.82739 | -0.84274 | 22061 ft | 407 kts | 206° |
| 2026-04-14 13:57 | 38.80139 | -0.85702 | 21795 ft | 405 kts | 206° |
| 2026-04-14 13:57 | 38.77556 | -0.87120 | 21541 ft | 403 kts | 206° |
| 2026-04-14 13:57 | 38.74991 | -0.88528 | 21283 ft | 399 kts | 206° |
| 2026-04-14 13:57 | 38.72446 | -0.89923 | 21032 ft | 397 kts | 206° |
| 2026-04-14 13:58 | 38.69915 | -0.91309 | 20782 ft | 394 kts | 206° |
| 2026-04-14 13:58 | 38.67403 | -0.92685 | 20533 ft | 391 kts | 205° |
| 2026-04-14 13:58 | 38.64908 | -0.94050 | 20283 ft | 388 kts | 205° |
| 2026-04-14 13:58 | 38.62436 | -0.95401 | 19953 ft | 386 kts | 205° |
| 2026-04-14 13:59 | 38.59971 | -0.96748 | 19605 ft | 385 kts | 205° |
| 2026-04-14 13:59 | 38.57507 | -0.98093 | 19227 ft | 385 kts | 205° |
| 2026-04-14 13:59 | 38.55056 | -0.99431 | 18881 ft | 383 kts | 205° |
| 2026-04-14 13:59 | 38.52609 | -1.00765 | 18548 ft | 381 kts | 205° |
| 2026-04-14 14:00 | 38.50168 | -1.02095 | 18144 ft | 381 kts | 205° |
| 2026-04-14 14:00 | 38.47735 | -1.03418 | 17728 ft | 379 kts | 205° |
| 2026-04-14 14:00 | 38.45319 | -1.04731 | 17415 ft | 374 kts | 205° |
| 2026-04-14 14:00 | 38.42932 | -1.06027 | 17043 ft | 372 kts | 205° |
| 2026-04-14 14:01 | 38.40562 | -1.07314 | 16711 ft | 369 kts | 205° |
| 2026-04-14 14:01 | 38.38204 | -1.08593 | 16359 ft | 367 kts | 205° |
| 2026-04-14 14:01 | 38.35862 | -1.09863 | 16034 ft | 364 kts | 205° |
| 2026-04-14 14:01 | 38.33559 | -1.11110 | 15825 ft | 357 kts | 205° |
| 2026-04-14 14:02 | 38.31283 | -1.12343 | 15391 ft | 360 kts | 205° |
| 2026-04-14 14:02 | 38.28982 | -1.13589 | 15034 ft | 359 kts | 205° |
| 2026-04-14 14:02 | 38.26695 | -1.14825 | 14693 ft | 356 kts | 205° |
| 2026-04-14 14:02 | 38.24433 | -1.16048 | 14542 ft | 348 kts | 205° |
| 2026-04-14 14:03 | 38.22207 | -1.17248 | 14121 ft | 349 kts | 205° |
| 2026-04-14 14:03 | 38.20003 | -1.18438 | 13831 ft | 343 kts | 206° |
| 2026-04-14 14:03 | 38.17811 | -1.19621 | 13376 ft | 340 kts | 205° |
| 2026-04-14 14:03 | 38.15654 | -1.20783 | 13092 ft | 333 kts | 205° |
| 2026-04-14 14:04 | 38.13523 | -1.21930 | 12664 ft | 331 kts | 205° |
| 2026-04-14 14:04 | 38.11417 | -1.23064 | 12345 ft | 328 kts | 205° |
| 2026-04-14 14:04 | 38.09321 | -1.24193 | 12018 ft | 326 kts | 205° |
| 2026-04-14 14:04 | 38.07237 | -1.25313 | 11732 ft | 324 kts | 205° |
| 2026-04-14 14:05 | 38.05169 | -1.26424 | 11398 ft | 322 kts | 205° |
| 2026-04-14 14:05 | 38.03120 | -1.27524 | 11110 ft | 319 kts | 205° |
| 2026-04-14 14:05 | 38.01075 | -1.28622 | 10771 ft | 319 kts | 205° |
| 2026-04-14 14:05 | 37.99036 | -1.29716 | 10452 ft | 317 kts | 205° |
| 2026-04-14 14:06 | 37.97024 | -1.30794 | 10218 ft | 312 kts | 205° |
| 2026-04-14 14:06 | 37.95008 | -1.31875 | 9827 ft | 314 kts | 205° |
| 2026-04-14 14:06 | 37.92999 | -1.32950 | 9479 ft | 313 kts | 205° |
| 2026-04-14 14:06 | 37.90988 | -1.34027 | 9062 ft | 311 kts | 205° |
| 2026-04-14 14:07 | 37.89016 | -1.35080 | 8732 ft | 305 kts | 205° |
| 2026-04-14 14:07 | 37.87073 | -1.36119 | 8422 ft | 301 kts | 207° |
| 2026-04-14 14:07 | 37.85332 | -1.37492 | 8109 ft | 291 kts | 218° |
| 2026-04-14 14:07 | 37.83492 | -1.38570 | 7824 ft | 293 kts | 200° |
| 2026-04-14 14:08 | 37.81553 | -1.39365 | 7523 ft | 293 kts | 201° |
| 2026-04-14 14:08 | 37.79633 | -1.40224 | 7233 ft | 293 kts | 203° |
| 2026-04-14 14:08 | 37.77738 | -1.41147 | 6954 ft | 290 kts | 205° |
| 2026-04-14 14:08 | 37.75873 | -1.42108 | 6647 ft | 290 kts | 205° |
| 2026-04-14 14:09 | 37.74016 | -1.43085 | 6345 ft | 289 kts | 205° |
| 2026-04-14 14:09 | 37.72162 | -1.44068 | 6059 ft | 289 kts | 205° |
| 2026-04-14 14:09 | 37.70300 | -1.45010 | 5751 ft | 288 kts | 198° |
| 2026-04-14 14:09 | 37.68308 | -1.45151 | 5460 ft | 289 kts | 168° |
| 2026-04-14 14:10 | 37.66494 | -1.44210 | 5240 ft | 284 kts | 143° |
| 2026-04-14 14:10 | 37.64947 | -1.42687 | 5120 ft | 275 kts | 137° |
| 2026-04-14 14:10 | 37.63634 | -1.41033 | 4982 ft | 265 kts | 116° |
| 2026-04-14 14:10 | 37.63141 | -1.38912 | 4881 ft | 245 kts | 83° |
| 2026-04-14 14:11 | 37.63580 | -1.36921 | 4795 ft | 233 kts | 56° |
| 2026-04-14 14:11 | 37.64509 | -1.35291 | 4705 ft | 227 kts | 45° |
| 2026-04-14 14:11 | 37.65539 | -1.33795 | 4583 ft | 226 kts | 44° |
| 2026-04-14 14:11 | 37.66595 | -1.32290 | 4320 ft | 230 kts | 44° |
| 2026-04-14 14:12 | 37.67638 | -1.30789 | 4075 ft | 224 kts | 45° |
| 2026-04-14 14:12 | 37.68646 | -1.29311 | 3811 ft | 219 kts | 45° |
| 2026-04-14 14:12 | 37.69611 | -1.27887 | 3575 ft | 208 kts | 45° |
| 2026-04-14 14:12 | 37.70533 | -1.26526 | 3380 ft | 200 kts | 45° |
| 2026-04-14 14:13 | 37.71425 | -1.25203 | 3112 ft | 195 kts | 45° |
| 2026-04-14 14:13 | 37.72295 | -1.23914 | 2839 ft | 190 kts | 44° |
| 2026-04-14 14:13 | 37.73154 | -1.22674 | 2588 ft | 187 kts | 44° |
| 2026-04-14 14:13 | 37.74002 | -1.21452 | 2327 ft | 181 kts | 44° |
| 2026-04-14 14:14 | 37.74802 | -1.20300 | 2092 ft | 169 kts | 43° |
| 2026-04-14 14:14 | 37.75564 | -1.19203 | 1862 ft | 162 kts | 43° |
| 2026-04-14 14:14 | 37.76282 | -1.18166 | 1654 ft | 148 kts | 44° |
| 2026-04-14 14:14 | 37.76942 | -1.17173 | 1430 ft | 146 kts | 47° |
| 2026-04-14 14:15 | 37.77519 | -1.16136 | 1252 ft | 144 kts | 51° |
| 2026-04-14 14:15 | 37.77939 | -1.15496 | 1063 ft | 143 kts | 41° |
| 2026-04-14 14:15 | 37.78627 | -1.14616 | 904 ft | 139 kts | 39° |
| 2026-04-14 14:15 | 37.79316 | -1.13750 | 726 ft | 140 kts | 40° |
| 2026-04-14 14:16 | 37.79971 | -1.12906 | 651 ft | 125 kts | 40° |
| 2026-04-14 14:16 | 37.80502 | -1.12230 | 651 ft | 91 kts | 46° |
| 2026-04-14 14:16 | 37.80859 | -1.11771 | 649 ft | 56 kts | 46° |
| 2026-04-14 14:17 | 37.81202 | -1.11328 | 651 ft | 24 kts | 45° |
| 2026-04-14 14:17 | 37.81293 | -1.11338 | 651 ft | 13 kts | 319° |
| 2026-04-14 14:17 | 37.81344 | -1.11422 | 651 ft | 12 kts | 285° |
| 2026-04-14 14:17 | 37.81305 | -1.11508 | 651 ft | 12 kts | 226° |
| 2026-04-14 14:18 | 37.81247 | -1.11581 | 651 ft | 12 kts | 225° |
| 2026-04-14 14:18 | 37.81149 | -1.11707 | 651 ft | 28 kts | 225° |
| 2026-04-14 14:18 | 37.81013 | -1.11881 | 651 ft | 27 kts | 225° |
| 2026-04-14 14:18 | 37.80892 | -1.12037 | 651 ft | 25 kts | 225° |
| 2026-04-14 14:19 | 37.80775 | -1.12188 | 651 ft | 23 kts | 225° |
| 2026-04-14 14:19 | 37.80664 | -1.12329 | 651 ft | 22 kts | 225° |
| 2026-04-14 14:19 | 37.80558 | -1.12467 | 651 ft | 21 kts | 226° |
| 2026-04-14 14:19 | 37.80456 | -1.12597 | 651 ft | 21 kts | 225° |
| 2026-04-14 14:20 | 37.80416 | -1.12744 | 653 ft | 20 kts | 314° |
| 2026-04-14 14:20 | 37.80429 | -1.12883 | 651 ft | 19 kts | 226° |
| 2026-04-14 14:20 | 37.80346 | -1.12992 | 651 ft | 13 kts | 226° |
| 2026-04-14 14:20 | 37.80347 | -1.13063 | 652 ft | 8 kts | 311° |
| 2026-04-14 14:21 | 37.80367 | -1.13090 | 651 ft | 0 kts | 315° |
| 2026-04-14 14:23 | 37.80367 | -1.13089 | 651 ft | 0 kts | 315° |